createdAt,value
2017-03-13T00:00:21.273Z,4.45
2017-03-13T00:01:17.189Z,4.42
2017-03-13T00:02:22.358Z,4.31
2017-03-13T00:03:17.433Z,4.31
2017-03-13T00:04:20.727Z,4.38
2017-03-13T00:05:20.897Z,4.38
2017-03-13T00:06:16.490Z,4.41
2017-03-13T00:07:22.163Z,4.28
2017-03-13T00:08:14.075Z,4.21
2017-03-13T00:09:21.094Z,4.35
2017-03-13T00:10:13.739Z,4.51
2017-03-13T00:11:13.678Z,4.42
2017-03-13T00:12:17.250Z,4.43
2017-03-13T00:13:21.584Z,4.57
2017-03-13T00:14:22.932Z,4.33
2017-03-13T00:15:18.522Z,4.28
2017-03-13T00:16:16.732Z,4.54
2017-03-13T00:17:17.294Z,4.25
2017-03-13T00:18:13.413Z,4.39
2017-03-13T00:19:14.411Z,4.14
2017-03-13T00:20:17.270Z,4.03
2017-03-13T00:21:13.904Z,4.16
2017-03-13T00:22:17.041Z,4.02
2017-03-13T00:23:17.809Z,4.38
2017-03-13T00:24:12.639Z,4.04
2017-03-13T00:25:20.856Z,4.23
2017-03-13T00:26:20.977Z,4.18
2017-03-13T00:27:26.082Z,4.17
2017-03-13T00:28:20.786Z,4.17
2017-03-13T00:29:17.141Z,4.13
2017-03-13T00:30:22.319Z,4.06
2017-03-13T00:31:17.539Z,4.10
2017-03-13T00:32:20.627Z,4.10
2017-03-13T00:33:23.634Z,4.21
2017-03-13T00:34:20.795Z,4.14
2017-03-13T00:35:21.259Z,4.32
2017-03-13T00:36:16.880Z,4.20
2017-03-13T00:37:17.153Z,4.18
2017-03-13T00:38:17.302Z,4.28
2017-03-13T00:39:16.407Z,4.11
2017-03-13T00:40:20.881Z,4.04
2017-03-13T00:41:13.025Z,4.17
2017-03-13T00:42:14.640Z,4.05
2017-03-13T00:43:20.766Z,4.03
2017-03-13T00:44:26.002Z,3.92
2017-03-13T00:45:14.800Z,3.87
2017-03-13T00:46:22.090Z,4.10
2017-03-13T00:47:13.385Z,3.63
2017-03-13T00:48:21.342Z,3.84
2017-03-13T00:49:21.625Z,3.63
2017-03-13T00:50:20.702Z,3.83
2017-03-13T00:51:25.682Z,3.76
2017-03-13T00:52:18.699Z,4.06
2017-03-13T00:53:23.029Z,3.81
2017-03-13T00:54:13.800Z,3.88
2017-03-13T00:55:13.388Z,4.06
2017-03-13T00:56:25.679Z,3.75
2017-03-13T00:58:16.657Z,3.94
2017-03-13T00:59:20.914Z,3.93
2017-03-13T01:00:15.393Z,3.89
2017-03-13T01:01:27.537Z,3.90
2017-03-13T01:02:22.352Z,3.70
2017-03-13T01:03:22.415Z,3.87
2017-03-13T01:04:16.883Z,3.89
2017-03-13T01:05:21.683Z,3.86
2017-03-13T01:06:17.687Z,3.71
2017-03-13T01:07:21.262Z,3.72
2017-03-13T01:08:21.853Z,3.81
2017-03-13T01:09:16.750Z,3.79
2017-03-13T01:10:21.964Z,3.77
2017-03-13T01:11:21.579Z,3.84
2017-03-13T01:12:16.639Z,3.75
2017-03-13T01:13:16.932Z,3.82
2017-03-13T01:14:22.998Z,3.68
2017-03-13T01:15:19.699Z,3.49
2017-03-13T01:16:16.649Z,3.70
2017-03-13T01:17:22.319Z,3.73
2017-03-13T01:18:27.322Z,3.40
2017-03-13T01:19:21.658Z,3.61
2017-03-13T01:20:18.557Z,3.53
2017-03-13T01:21:17.698Z,3.71
2017-03-13T01:23:16.917Z,3.54
2017-03-13T01:24:21.637Z,3.45
2017-03-13T01:25:18.035Z,3.50
2017-03-13T01:26:22.944Z,3.70
2017-03-13T01:27:21.500Z,3.65
2017-03-13T01:28:21.580Z,3.68
2017-03-13T01:30:17.683Z,3.73
2017-03-13T01:31:20.204Z,3.55
2017-03-13T01:32:17.078Z,3.66
2017-03-13T01:33:14.277Z,3.76
2017-03-13T01:35:20.572Z,3.75
2017-03-13T01:36:20.119Z,3.72
2017-03-13T01:37:21.119Z,3.71
2017-03-13T01:38:22.179Z,3.82
2017-03-13T01:39:21.554Z,3.68
2017-03-13T01:40:21.649Z,3.51
2017-03-13T01:41:25.463Z,3.26
2017-03-13T01:42:17.699Z,3.62
2017-03-13T01:43:20.557Z,3.46
2017-03-13T01:44:22.298Z,3.34
2017-03-13T01:45:17.695Z,3.14
2017-03-13T01:46:21.903Z,3.46
2017-03-13T01:47:21.053Z,3.45
2017-03-13T01:48:21.316Z,3.32
2017-03-13T01:49:26.365Z,3.51
2017-03-13T01:50:21.859Z,3.62
2017-03-13T01:51:26.546Z,3.16
2017-03-13T01:52:20.662Z,3.35
2017-03-13T01:53:14.672Z,3.56
2017-03-13T01:54:17.220Z,3.63
2017-03-13T01:55:22.371Z,3.37
2017-03-13T01:56:27.025Z,3.55
2017-03-13T01:57:14.848Z,3.32
2017-03-13T01:58:21.991Z,3.35
2017-03-13T01:59:16.687Z,3.40
2017-03-13T02:00:16.517Z,3.41
2017-03-13T02:01:18.019Z,3.42
2017-03-13T02:02:26.762Z,3.54
2017-03-13T02:03:17.620Z,3.38
2017-03-13T02:04:17.252Z,3.36
2017-03-13T02:05:16.982Z,3.31
2017-03-13T02:06:17.625Z,3.43
2017-03-13T02:07:14.850Z,3.29
2017-03-13T02:08:18.271Z,3.16
2017-03-13T02:09:27.258Z,3.38
2017-03-13T02:10:14.428Z,3.41
2017-03-13T02:11:16.788Z,3.47
2017-03-13T02:12:17.081Z,3.58
2017-03-13T02:13:16.496Z,3.45
2017-03-13T02:14:16.595Z,3.31
2017-03-13T02:15:21.919Z,3.38
2017-03-13T02:16:16.538Z,3.29
2017-03-13T02:17:20.766Z,3.25
2017-03-13T02:18:21.889Z,3.26
2017-03-13T02:19:13.880Z,3.44
2017-03-13T02:20:21.935Z,3.35
2017-03-13T02:21:16.522Z,3.28
2017-03-13T02:22:16.638Z,3.31
2017-03-13T02:23:21.581Z,3.22
2017-03-13T02:24:21.689Z,3.29
2017-03-13T02:26:20.818Z,2.91
2017-03-13T02:27:20.692Z,2.56
2017-03-13T02:28:21.544Z,2.63
2017-03-13T02:29:20.599Z,2.69
2017-03-13T02:30:16.908Z,2.73
2017-03-13T02:31:22.306Z,3.24
2017-03-13T02:32:16.501Z,3.16
2017-03-13T02:33:17.127Z,3.01
2017-03-13T02:34:21.539Z,3.09
2017-03-13T02:35:22.005Z,2.83
2017-03-13T02:36:22.087Z,2.86
2017-03-13T02:37:21.528Z,3.15
2017-03-13T02:38:25.778Z,2.99
2017-03-13T02:39:21.435Z,3.07
2017-03-13T02:40:22.417Z,3.27
2017-03-13T02:41:22.373Z,3.01
2017-03-13T02:42:18.273Z,2.90
2017-03-13T02:43:23.388Z,3.06
2017-03-13T02:44:23.547Z,3.06
2017-03-13T02:45:16.550Z,3.11
2017-03-13T02:46:21.508Z,3.18
2017-03-13T02:47:25.444Z,2.90
2017-03-13T02:48:16.556Z,3.16
2017-03-13T02:49:16.532Z,3.31
2017-03-13T02:50:26.971Z,3.36
2017-03-13T02:51:21.919Z,3.28
2017-03-13T02:52:22.103Z,2.78
2017-03-13T02:53:21.125Z,3.09
2017-03-13T02:54:21.278Z,3.20
2017-03-13T02:55:27.491Z,3.04
2017-03-13T02:56:20.836Z,3.27
2017-03-13T02:57:16.760Z,2.91
2017-03-13T02:58:22.261Z,3.11
2017-03-13T02:59:16.939Z,2.79
2017-03-13T03:00:21.838Z,3.03
2017-03-13T03:01:16.988Z,3.16
2017-03-13T03:02:21.889Z,3.02
2017-03-13T03:03:16.907Z,3.21
2017-03-13T03:04:25.898Z,2.71
2017-03-13T03:05:20.821Z,3.09
2017-03-13T03:06:20.705Z,2.92
2017-03-13T03:07:12.812Z,2.95
2017-03-13T03:08:22.531Z,3.17
2017-03-13T03:09:22.223Z,2.73
2017-03-13T03:10:16.843Z,2.81
2017-03-13T03:11:20.666Z,3.13
2017-03-13T03:12:22.080Z,3.04
2017-03-13T03:14:22.620Z,3.06
2017-03-13T03:15:16.615Z,3.08
2017-03-13T03:16:14.200Z,3.05
2017-03-13T03:17:21.062Z,3.01
2017-03-13T03:18:22.181Z,3.06
2017-03-13T03:19:21.991Z,2.66
2017-03-13T03:20:20.121Z,2.98
2017-03-13T03:21:21.387Z,3.01
2017-03-13T03:22:15.679Z,2.89
2017-03-13T03:23:21.079Z,2.93
2017-03-13T03:24:21.168Z,2.65
2017-03-13T03:25:20.914Z,2.97
2017-03-13T03:26:16.905Z,2.93
2017-03-13T03:27:12.629Z,2.78
2017-03-13T03:28:20.699Z,2.79
2017-03-13T03:29:21.049Z,3.04
2017-03-13T03:30:26.145Z,3.02
2017-03-13T03:31:21.054Z,2.98
2017-03-13T03:32:18.480Z,3.00
2017-03-13T03:33:14.504Z,2.94
2017-03-13T03:34:21.025Z,3.12
2017-03-13T03:35:16.663Z,3.02
2017-03-13T03:36:21.809Z,3.12
2017-03-13T03:37:12.414Z,3.04
2017-03-13T03:39:25.694Z,2.85
2017-03-13T03:40:25.685Z,2.82
2017-03-13T03:41:25.795Z,3.00
2017-03-13T03:42:12.941Z,2.99
2017-03-13T03:43:18.198Z,2.93
2017-03-13T03:44:28.354Z,2.80
2017-03-13T03:46:16.926Z,2.92
2017-03-13T03:47:21.012Z,2.90
2017-03-13T03:48:13.047Z,2.87
2017-03-13T03:49:26.665Z,2.90
2017-03-13T03:50:25.866Z,2.79
2017-03-13T03:51:22.502Z,2.66
2017-03-13T03:52:25.807Z,2.61
2017-03-13T03:53:17.992Z,2.55
2017-03-13T03:54:17.542Z,2.79
2017-03-13T03:55:16.662Z,2.22
2017-03-13T03:56:16.748Z,2.11
2017-03-13T03:57:22.019Z,2.41
2017-03-13T03:58:16.998Z,2.32
2017-03-13T03:59:18.066Z,2.15
2017-03-13T04:00:13.616Z,2.10
2017-03-13T04:01:20.979Z,2.29
2017-03-13T04:02:21.309Z,2.05
2017-03-13T04:03:22.456Z,2.43
2017-03-13T04:04:19.277Z,2.31
2017-03-13T04:05:21.790Z,2.53
2017-03-13T04:06:22.728Z,2.42
2017-03-13T04:07:16.765Z,2.06
2017-03-13T04:08:22.841Z,2.42
2017-03-13T04:09:27.330Z,2.19
2017-03-13T04:10:17.585Z,2.51
2017-03-13T04:11:21.880Z,2.65
2017-03-13T04:12:17.100Z,2.67
2017-03-13T04:13:15.792Z,2.53
2017-03-13T04:14:13.032Z,2.51
2017-03-13T04:15:28.794Z,2.76
2017-03-13T04:16:17.039Z,2.24
2017-03-13T04:17:21.719Z,2.28
2017-03-13T04:18:19.750Z,2.60
2017-03-13T04:19:22.441Z,2.15
2017-03-13T04:20:22.377Z,2.35
2017-03-13T04:21:27.254Z,2.60
2017-03-13T04:22:17.447Z,2.63
2017-03-13T04:24:21.223Z,2.78
2017-03-13T04:25:18.165Z,2.74
2017-03-13T04:26:27.590Z,2.64
2017-03-13T04:27:16.843Z,2.67
2017-03-13T04:28:22.905Z,2.63
2017-03-13T04:29:12.887Z,2.68
2017-03-13T04:30:17.339Z,2.73
2017-03-13T04:31:27.166Z,2.57
2017-03-13T04:32:21.537Z,2.64
2017-03-13T04:33:17.287Z,2.70
2017-03-13T04:34:20.652Z,2.69
2017-03-13T04:35:26.119Z,2.76
2017-03-13T04:36:21.289Z,2.60
2017-03-13T04:37:21.858Z,2.79
2017-03-13T04:38:09.437Z,2.75
2017-03-13T04:39:23.167Z,2.22
2017-03-13T04:40:17.116Z,2.37
2017-03-13T04:41:17.081Z,2.04
2017-03-13T04:42:16.743Z,1.96
2017-03-13T04:43:21.949Z,2.32
2017-03-13T04:44:21.159Z,2.39
2017-03-13T04:45:21.176Z,2.44
2017-03-13T04:46:16.780Z,2.33
2017-03-13T04:47:16.818Z,2.46
2017-03-13T04:48:20.517Z,2.06
2017-03-13T04:49:27.731Z,2.40
2017-03-13T04:50:17.295Z,2.47
2017-03-13T04:51:20.956Z,2.50
2017-03-13T04:52:21.142Z,2.30
2017-03-13T04:53:20.609Z,2.23
2017-03-13T04:54:21.677Z,2.29
2017-03-13T04:56:22.302Z,2.37
2017-03-13T04:57:12.477Z,2.35
2017-03-13T05:00:26.015Z,2.34
2017-03-13T05:01:25.892Z,2.42
2017-03-13T05:02:20.896Z,2.23
2017-03-13T05:03:16.688Z,2.20
2017-03-13T05:04:20.810Z,2.47
2017-03-13T05:05:21.099Z,2.43
2017-03-13T05:07:12.951Z,2.54
2017-03-13T05:08:20.859Z,2.66
2017-03-13T05:09:13.720Z,2.37
2017-03-13T05:10:21.077Z,2.42
2017-03-13T05:11:26.512Z,2.42
2017-03-13T05:12:21.470Z,2.24
2017-03-13T05:13:27.092Z,1.99
2017-03-13T05:15:21.805Z,2.28
2017-03-13T05:16:20.760Z,2.35
2017-03-13T05:17:13.968Z,2.00
2017-03-13T05:18:14.078Z,2.19
2017-03-13T05:19:21.205Z,1.93
2017-03-13T05:20:14.000Z,2.02
2017-03-13T05:21:13.624Z,1.74
2017-03-13T05:22:12.765Z,1.89
2017-03-13T05:24:16.430Z,2.00
2017-03-13T05:25:24.633Z,2.06
2017-03-13T05:26:13.631Z,1.99
2017-03-13T05:27:21.688Z,2.12
2017-03-13T05:28:21.716Z,2.24
2017-03-13T05:30:14.082Z,2.52
2017-03-13T05:31:23.012Z,2.35
2017-03-13T05:32:18.424Z,1.86
2017-03-13T05:33:27.336Z,1.76
2017-03-13T05:34:26.124Z,2.09
2017-03-13T05:35:20.743Z,2.01
2017-03-13T05:36:27.097Z,2.04
2017-03-13T05:38:22.396Z,2.09
2017-03-13T05:39:19.772Z,2.07
2017-03-13T05:40:21.590Z,2.13
2017-03-13T05:43:22.743Z,2.09
2017-03-13T05:44:27.476Z,2.19
2017-03-13T05:45:22.308Z,1.99
2017-03-13T05:47:22.479Z,1.85
2017-03-13T05:48:16.636Z,1.68
2017-03-13T05:50:18.733Z,1.81
2017-03-13T05:52:21.629Z,2.23
2017-03-13T05:53:21.399Z,2.30
2017-03-13T05:54:23.132Z,2.29
2017-03-13T05:55:13.910Z,2.16
2017-03-13T05:56:20.102Z,2.20
2017-03-13T05:57:22.357Z,2.14
2017-03-13T05:59:18.416Z,2.11
2017-03-13T06:02:12.754Z,2.28
2017-03-13T06:05:22.480Z,2.40
2017-03-13T06:06:21.506Z,2.14
2017-03-13T06:07:16.705Z,2.20
2017-03-13T06:08:12.651Z,2.10
2017-03-13T06:09:20.955Z,2.45
2017-03-13T06:10:21.585Z,2.48
2017-03-13T06:12:19.383Z,2.27
2017-03-13T06:14:22.301Z,2.44
2017-03-13T06:17:12.248Z,2.58
2017-03-13T06:18:16.846Z,2.48
2017-03-13T06:19:25.618Z,2.49
2017-03-13T06:20:21.117Z,2.71
2017-03-13T06:23:14.878Z,2.54
2017-03-13T06:24:20.601Z,2.55
2017-03-13T06:25:20.755Z,2.62
2017-03-13T06:26:18.307Z,2.64
2017-03-13T06:27:22.093Z,2.72
2017-03-13T06:30:18.200Z,2.95
2017-03-13T06:31:20.980Z,2.91
2017-03-13T06:34:21.450Z,2.65
2017-03-13T06:35:18.504Z,2.78
2017-03-13T06:38:22.217Z,2.98
2017-03-13T06:40:32.776Z,3.09
2017-03-13T06:43:26.489Z,3.39
2017-03-13T06:44:20.583Z,3.12
2017-03-13T06:45:14.915Z,3.13
2017-03-13T06:49:13.021Z,2.83
2017-03-13T06:50:16.632Z,3.11
2017-03-13T06:51:16.730Z,2.97
2017-03-13T06:52:16.731Z,3.33
2017-03-13T06:53:20.814Z,3.27
2017-03-13T06:54:21.893Z,3.43
2017-03-13T06:55:21.881Z,3.62
2017-03-13T06:57:16.687Z,3.24
2017-03-13T06:58:20.759Z,3.30
2017-03-13T07:00:20.781Z,3.36
2017-03-13T07:01:16.975Z,3.26
2017-03-13T07:02:16.814Z,3.37
2017-03-13T07:03:13.296Z,3.60
2017-03-13T07:04:16.971Z,3.28
2017-03-13T07:05:21.181Z,3.58
2017-03-13T07:06:27.012Z,3.81
2017-03-13T07:07:21.586Z,3.79
2017-03-13T07:08:22.328Z,3.48
2017-03-13T07:09:21.152Z,3.65
2017-03-13T07:10:13.468Z,3.35
2017-03-13T07:11:22.060Z,3.69
2017-03-13T07:12:22.119Z,3.68
2017-03-13T07:13:26.884Z,3.48
2017-03-13T07:14:14.534Z,3.78
2017-03-13T07:15:21.029Z,3.73
2017-03-13T07:16:19.698Z,3.49
2017-03-13T07:17:11.613Z,3.49
2017-03-13T07:18:27.185Z,3.68
2017-03-13T07:19:16.925Z,3.69
2017-03-13T07:20:20.740Z,3.88
2017-03-13T07:21:20.850Z,3.62
2017-03-13T07:22:16.936Z,3.83
2017-03-13T07:23:22.603Z,3.82
2017-03-13T07:24:14.779Z,3.66
2017-03-13T07:25:16.850Z,3.71
2017-03-13T07:26:18.269Z,3.73
2017-03-13T07:27:20.973Z,3.65
2017-03-13T07:28:14.117Z,3.82
2017-03-13T07:29:22.072Z,3.72
2017-03-13T07:30:12.138Z,3.82
2017-03-13T07:31:16.656Z,3.97
2017-03-13T07:32:16.633Z,4.05
2017-03-13T07:33:16.765Z,3.88
2017-03-13T07:34:22.249Z,3.78
2017-03-13T07:35:22.453Z,3.94
2017-03-13T07:36:25.887Z,4.14
2017-03-13T07:37:22.187Z,4.19
2017-03-13T07:38:21.685Z,4.30
2017-03-13T07:39:22.126Z,4.31
2017-03-13T07:40:12.230Z,4.11
2017-03-13T07:41:21.003Z,4.13
2017-03-13T07:42:19.108Z,3.97
2017-03-13T07:43:27.277Z,3.83
2017-03-13T07:44:20.186Z,3.86
2017-03-13T07:45:19.851Z,3.61
2017-03-13T07:46:13.931Z,3.83
2017-03-13T07:47:22.088Z,4.09
2017-03-13T07:48:17.990Z,4.03
2017-03-13T07:49:16.721Z,4.04
2017-03-13T07:50:20.695Z,4.05
2017-03-13T07:51:22.272Z,3.88
2017-03-13T07:52:22.668Z,3.92
2017-03-13T07:53:16.901Z,4.04
2017-03-13T07:54:22.331Z,4.25
2017-03-13T07:55:14.969Z,4.28
2017-03-13T07:56:17.295Z,4.30
2017-03-13T07:57:22.695Z,4.41
2017-03-13T07:58:17.307Z,4.55
2017-03-13T07:59:21.241Z,4.32
2017-03-13T08:00:25.677Z,4.08
2017-03-13T08:01:25.684Z,3.78
2017-03-13T08:02:17.450Z,3.95
2017-03-13T08:03:12.582Z,4.19
2017-03-13T08:04:12.734Z,4.18
2017-03-13T08:05:20.644Z,4.20
2017-03-13T08:06:14.891Z,4.40
2017-03-13T08:07:28.162Z,4.39
2017-03-13T08:08:21.572Z,4.46
2017-03-13T08:09:21.819Z,4.46
2017-03-13T08:10:20.796Z,4.35
2017-03-13T08:11:20.351Z,4.42
2017-03-13T08:12:17.029Z,4.58
2017-03-13T08:13:21.132Z,4.32
2017-03-13T08:14:20.836Z,4.20
2017-03-13T08:15:26.658Z,4.46
2017-03-13T08:16:14.139Z,4.53
2017-03-13T08:17:16.962Z,4.68
2017-03-13T08:18:22.403Z,4.60
2017-03-13T08:19:17.040Z,4.75
2017-03-13T08:20:27.388Z,4.78
2017-03-13T08:21:23.477Z,4.74
2017-03-13T08:22:18.391Z,4.79
2017-03-13T08:23:18.153Z,4.47
2017-03-13T08:24:26.716Z,4.43
2017-03-13T08:25:18.089Z,4.52
2017-03-13T08:26:17.375Z,4.47
2017-03-13T08:27:13.481Z,4.54
2017-03-13T08:28:22.717Z,4.43
2017-03-13T08:29:18.512Z,4.65
2017-03-13T08:30:27.805Z,4.70
2017-03-13T08:31:13.922Z,4.76
2017-03-13T08:32:22.223Z,4.80
2017-03-13T08:33:21.934Z,4.70
2017-03-13T08:34:22.823Z,4.91
2017-03-13T08:35:26.378Z,4.99
2017-03-13T08:36:17.037Z,5.03
2017-03-13T08:37:20.994Z,5.03
2017-03-13T08:38:13.996Z,5.14
2017-03-13T08:39:21.854Z,5.14
2017-03-13T08:40:22.128Z,5.15
2017-03-13T08:41:22.100Z,5.08
2017-03-13T08:42:13.478Z,5.17
2017-03-13T08:43:22.874Z,5.31
2017-03-13T08:44:20.461Z,5.30
2017-03-13T08:45:16.646Z,5.56
2017-03-13T08:46:20.997Z,5.51
2017-03-13T08:47:21.062Z,5.64
2017-03-13T08:48:17.066Z,5.75
2017-03-13T08:49:26.149Z,5.81
2017-03-13T08:50:25.668Z,5.85
2017-03-13T08:51:26.248Z,5.80
2017-03-13T08:52:16.571Z,6.00
2017-03-13T08:53:21.173Z,5.71
2017-03-13T08:54:22.532Z,5.81
2017-03-13T08:55:16.814Z,5.80
2017-03-13T08:56:25.990Z,5.84
2017-03-13T08:57:16.653Z,5.97
2017-03-13T08:58:21.837Z,5.60
2017-03-13T08:59:17.377Z,5.72
2017-03-13T09:00:25.875Z,5.65
2017-03-13T09:01:14.595Z,5.70
2017-03-13T09:02:20.042Z,5.74
2017-03-13T09:03:23.058Z,5.81
2017-03-13T09:04:22.200Z,5.70
2017-03-13T09:05:17.380Z,5.56
2017-03-13T09:06:26.058Z,5.67
2017-03-13T09:07:18.379Z,5.51
2017-03-13T09:08:13.703Z,5.62
2017-03-13T09:09:21.136Z,5.46
2017-03-13T09:10:26.267Z,5.59
2017-03-13T09:11:20.781Z,5.46
2017-03-13T09:12:13.869Z,5.52
2017-03-13T09:13:13.975Z,5.53
2017-03-13T09:14:26.547Z,5.63
2017-03-13T09:15:13.667Z,5.66
2017-03-13T09:16:16.808Z,5.73
2017-03-13T09:17:25.657Z,5.67
2017-03-13T09:18:21.576Z,5.80
2017-03-13T09:19:17.389Z,5.63
2017-03-13T09:20:21.252Z,5.62
2017-03-13T09:21:22.553Z,5.49
2017-03-13T09:22:13.483Z,5.60
2017-03-13T09:23:12.970Z,5.63
2017-03-13T09:24:22.310Z,5.60
2017-03-13T09:25:26.012Z,5.65
2017-03-13T09:26:26.213Z,5.69
2017-03-13T09:27:21.435Z,5.73
2017-03-13T09:28:21.144Z,5.81
2017-03-13T09:29:13.464Z,5.79
2017-03-13T09:30:16.749Z,5.80
2017-03-13T09:31:21.140Z,5.74
2017-03-13T09:32:21.516Z,5.75
2017-03-13T09:33:18.015Z,5.77
2017-03-13T09:34:13.940Z,5.71
2017-03-13T09:35:20.789Z,5.65
2017-03-13T09:36:14.878Z,5.72
2017-03-13T09:37:14.287Z,5.87
2017-03-13T09:38:21.467Z,5.96
2017-03-13T09:39:25.667Z,5.92
2017-03-13T09:40:20.508Z,5.88
2017-03-13T09:41:12.547Z,5.93
2017-03-13T09:42:16.641Z,6.05
2017-03-13T09:43:26.337Z,6.15
2017-03-13T09:44:27.277Z,6.14
2017-03-13T09:45:21.432Z,6.11
2017-03-13T09:46:20.815Z,5.97
2017-03-13T09:47:22.367Z,5.97
2017-03-13T09:48:16.689Z,6.19
2017-03-13T09:49:16.809Z,6.23
2017-03-13T09:50:13.524Z,6.29
2017-03-13T09:51:20.358Z,6.37
2017-03-13T09:52:20.602Z,6.56
2017-03-13T09:53:20.818Z,6.62
2017-03-13T09:54:18.029Z,6.62
2017-03-13T09:55:23.318Z,6.78
2017-03-13T09:56:20.839Z,6.89
2017-03-13T09:57:18.518Z,6.68
2017-03-13T09:58:21.088Z,6.69
2017-03-13T09:59:20.163Z,6.74
2017-03-13T10:00:16.521Z,6.89
2017-03-13T10:01:26.552Z,6.84
2017-03-13T10:02:17.515Z,6.93
2017-03-13T10:03:16.805Z,6.99
2017-03-13T10:04:18.192Z,7.15
2017-03-13T10:05:17.468Z,7.11
2017-03-13T10:06:20.574Z,7.12
2017-03-13T10:07:22.061Z,7.27
2017-03-13T10:08:16.529Z,7.29
2017-03-13T10:09:21.392Z,7.27
2017-03-13T10:10:19.540Z,7.26
2017-03-13T10:11:11.560Z,7.28
2017-03-13T10:12:20.910Z,7.25
2017-03-13T10:13:20.969Z,7.39
2017-03-13T10:14:21.189Z,7.31
2017-03-13T10:15:26.996Z,7.35
2017-03-13T10:16:21.945Z,7.45
2017-03-13T10:17:22.507Z,7.47
2017-03-13T10:18:13.572Z,7.45
2017-03-13T10:19:22.185Z,7.41
2017-03-13T10:20:22.349Z,7.49
2017-03-13T10:21:22.002Z,7.59
2017-03-13T10:22:22.407Z,7.71
2017-03-13T10:23:21.149Z,7.79
2017-03-13T10:24:21.224Z,7.85
2017-03-13T10:25:20.960Z,7.82
2017-03-13T10:26:22.106Z,7.64
2017-03-13T10:27:20.941Z,7.49
2017-03-13T10:28:21.272Z,7.39
2017-03-13T10:29:13.407Z,7.41
2017-03-13T10:30:20.601Z,7.36
2017-03-13T10:31:16.893Z,7.37
2017-03-13T10:32:16.495Z,7.33
2017-03-13T10:33:20.584Z,7.29
2017-03-13T10:34:13.318Z,7.23
2017-03-13T10:35:20.726Z,7.23
2017-03-13T10:36:14.802Z,7.20
2017-03-13T10:37:18.503Z,7.14
2017-03-13T10:38:20.888Z,7.26
2017-03-13T10:39:20.888Z,7.32
2017-03-13T10:40:22.114Z,7.32
2017-03-13T10:41:16.597Z,7.40
2017-03-13T10:42:16.753Z,7.40
2017-03-13T10:43:22.010Z,7.30
2017-03-13T10:44:22.361Z,7.41
2017-03-13T10:45:21.459Z,7.44
2017-03-13T10:46:16.765Z,7.55
2017-03-13T10:47:22.359Z,7.60
2017-03-13T10:48:21.090Z,7.69
2017-03-13T10:49:21.905Z,7.73
2017-03-13T10:50:22.031Z,7.73
2017-03-13T10:51:20.848Z,7.70
2017-03-13T10:52:21.207Z,7.61
2017-03-13T10:53:22.343Z,7.52
2017-03-13T10:54:12.692Z,7.59
2017-03-13T10:55:13.689Z,7.66
2017-03-13T10:56:21.839Z,7.65
2017-03-13T10:57:12.914Z,7.69
2017-03-13T10:58:26.502Z,7.79
2017-03-13T10:59:25.893Z,7.83
2017-03-13T11:00:20.877Z,7.77
2017-03-13T11:01:21.016Z,7.80
2017-03-13T11:02:13.290Z,7.78
2017-03-13T11:03:14.575Z,7.76
2017-03-13T11:04:20.696Z,7.77
2017-03-13T11:05:12.651Z,7.76
2017-03-13T11:06:21.571Z,7.75
2017-03-13T11:07:26.826Z,7.92
2017-03-13T11:08:20.885Z,7.99
2017-03-13T11:09:26.212Z,8.03
2017-03-13T11:10:20.564Z,8.02
2017-03-13T11:11:20.715Z,8.02
2017-03-13T11:12:21.576Z,8.05
2017-03-13T11:13:13.586Z,8.04
2017-03-13T11:14:14.329Z,8.09
2017-03-13T11:15:12.183Z,8.16
2017-03-13T11:16:12.394Z,8.17
2017-03-13T11:17:22.866Z,8.14
2017-03-13T11:18:21.030Z,8.12
2017-03-13T11:19:27.239Z,8.15
2017-03-13T11:20:22.348Z,8.12
2017-03-13T11:21:16.783Z,8.21
2017-03-13T11:22:21.128Z,8.29
2017-03-13T11:23:22.490Z,8.37
2017-03-13T11:24:26.686Z,8.38
2017-03-13T11:25:13.766Z,8.34
2017-03-13T11:26:20.612Z,8.33
2017-03-13T11:27:20.834Z,8.40
2017-03-13T11:28:18.216Z,8.37
2017-03-13T11:29:21.240Z,8.40
2017-03-13T11:30:26.181Z,8.37
2017-03-13T11:31:21.173Z,8.26
2017-03-13T11:32:21.407Z,8.28
2017-03-13T11:33:20.800Z,8.27
2017-03-13T11:34:21.870Z,8.37
2017-03-13T11:35:13.676Z,8.41
2017-03-13T11:36:20.876Z,8.51
2017-03-13T11:37:21.442Z,8.61
2017-03-13T11:38:22.557Z,8.57
2017-03-13T11:39:22.506Z,8.60
2017-03-13T11:40:13.221Z,8.61
2017-03-13T11:41:22.530Z,8.62
2017-03-13T11:42:14.191Z,8.65
2017-03-13T11:43:26.109Z,8.68
2017-03-13T11:44:20.825Z,8.74
2017-03-13T11:45:21.484Z,8.65
2017-03-13T11:46:20.632Z,8.54
2017-03-13T11:47:21.161Z,8.57
2017-03-13T11:48:22.152Z,8.60
2017-03-13T11:49:22.173Z,8.62
2017-03-13T11:50:18.276Z,8.65
2017-03-13T11:51:21.418Z,8.72
2017-03-13T11:52:20.986Z,8.75
2017-03-13T11:53:21.882Z,8.70
2017-03-13T11:54:21.038Z,8.70
2017-03-13T11:55:21.194Z,8.69
2017-03-13T11:56:21.455Z,8.66
2017-03-13T11:57:17.079Z,8.69
2017-03-13T11:58:21.566Z,8.73
2017-03-13T11:59:21.647Z,8.80
2017-03-13T12:00:21.425Z,8.82
2017-03-13T12:01:17.188Z,8.91
2017-03-13T12:02:12.281Z,9.04
2017-03-13T12:03:21.359Z,9.06
2017-03-13T12:04:18.559Z,9.10
2017-03-13T12:05:26.586Z,9.10
2017-03-13T12:06:20.738Z,9.04
2017-03-13T12:07:26.958Z,8.98
2017-03-13T12:08:22.352Z,8.92
2017-03-13T12:09:21.095Z,8.92
2017-03-13T12:10:21.022Z,8.97
2017-03-13T12:11:26.128Z,9.11
2017-03-13T12:12:21.217Z,9.10
2017-03-13T12:13:18.313Z,9.11
2017-03-13T12:14:20.975Z,9.10
2017-03-13T12:15:17.108Z,9.03
2017-03-13T12:16:26.335Z,9.01
2017-03-13T12:17:21.759Z,9.03
2017-03-13T12:18:22.044Z,9.03
2017-03-13T12:19:13.172Z,9.12
2017-03-13T12:20:21.092Z,9.13
2017-03-13T12:21:21.029Z,9.13
2017-03-13T12:22:13.138Z,9.19
2017-03-13T12:23:22.671Z,9.25
2017-03-13T12:24:22.228Z,9.30
2017-03-13T12:25:18.420Z,9.38
2017-03-13T12:26:20.661Z,9.36
2017-03-13T12:27:21.085Z,9.34
2017-03-13T12:28:23.001Z,9.34
2017-03-13T12:29:20.852Z,9.32
2017-03-13T12:30:17.093Z,9.30
2017-03-13T12:31:13.412Z,9.30
2017-03-13T12:32:18.478Z,9.30
2017-03-13T12:33:20.915Z,9.31
2017-03-13T12:34:20.668Z,9.34
2017-03-13T12:35:14.091Z,9.36
2017-03-13T12:36:27.146Z,9.44
2017-03-13T12:37:17.039Z,9.53
2017-03-13T12:38:16.127Z,9.58
2017-03-13T12:39:17.383Z,9.57
2017-03-13T12:40:17.207Z,9.65
2017-03-13T12:41:20.848Z,9.61
2017-03-13T12:42:22.014Z,9.61
2017-03-13T12:43:21.283Z,9.73
2017-03-13T12:44:25.715Z,9.67
2017-03-13T12:45:20.658Z,9.64
2017-03-13T12:46:26.162Z,9.72
2017-03-13T12:47:21.266Z,9.73
2017-03-13T12:48:26.242Z,9.74
2017-03-13T12:49:26.422Z,9.77
2017-03-13T12:50:23.505Z,9.80
2017-03-13T12:51:26.061Z,9.83
2017-03-13T12:54:19.448Z,9.99
2017-03-13T12:55:19.609Z,10.02
2017-03-13T12:56:26.245Z,9.99
2017-03-13T12:57:26.262Z,9.99
2017-03-13T12:58:13.111Z,10.07
2017-03-13T12:59:11.539Z,10.12
2017-03-13T13:00:25.711Z,10.21
2017-03-13T13:01:21.587Z,10.29
2017-03-13T13:02:17.782Z,10.25
2017-03-13T13:03:26.616Z,10.31
2017-03-13T13:04:14.907Z,10.33
2017-03-13T13:05:22.488Z,10.33
2017-03-13T13:06:18.527Z,10.38
2017-03-13T13:07:16.434Z,10.39
2017-03-13T13:08:26.714Z,10.35
2017-03-13T13:09:22.620Z,10.36
2017-03-13T13:10:21.089Z,10.40
2017-03-13T13:11:20.864Z,10.49
2017-03-13T13:12:21.321Z,10.51
2017-03-13T13:13:17.448Z,10.53
2017-03-13T13:14:21.753Z,10.62
2017-03-13T13:15:22.017Z,10.68
2017-03-13T13:16:22.102Z,10.77
2017-03-13T13:17:21.922Z,10.82
2017-03-13T13:18:13.998Z,10.95
2017-03-13T13:19:20.645Z,10.96
2017-03-13T13:20:08.886Z,10.99
2017-03-13T13:21:08.060Z,11.02
2017-03-13T13:22:25.843Z,10.96
2017-03-13T13:23:20.903Z,10.98
2017-03-13T13:24:22.036Z,10.89
2017-03-13T13:25:20.818Z,10.93
2017-03-13T13:26:21.897Z,10.98
2017-03-13T13:27:25.714Z,11.16
2017-03-13T13:28:20.795Z,11.13
2017-03-13T13:29:13.822Z,11.27
2017-03-13T13:30:21.873Z,11.38
2017-03-13T13:31:21.951Z,11.48
2017-03-13T13:32:13.677Z,11.52
2017-03-13T13:33:21.441Z,11.44
2017-03-13T13:34:16.853Z,11.43
2017-03-13T13:35:21.913Z,11.48
2017-03-13T13:36:20.757Z,11.56
2017-03-13T13:37:20.935Z,11.55
2017-03-13T13:38:21.067Z,11.42
2017-03-13T13:39:21.261Z,11.47
2017-03-13T13:40:21.230Z,11.50
2017-03-13T13:41:22.322Z,11.43
2017-03-13T13:42:25.713Z,11.45
2017-03-13T13:43:20.949Z,11.55
2017-03-13T13:44:20.720Z,12.16
2017-03-13T13:45:20.275Z,12.97
2017-03-13T13:46:17.858Z,13.14
2017-03-13T13:47:17.274Z,13.20
2017-03-13T13:48:14.322Z,13.07
2017-03-13T13:49:20.706Z,12.81
2017-03-13T13:50:20.652Z,12.77
2017-03-13T13:51:16.663Z,12.64
2017-03-13T13:52:21.915Z,12.19
2017-03-13T13:53:16.545Z,12.38
2017-03-13T13:54:16.654Z,12.43
2017-03-13T13:55:21.344Z,12.66
2017-03-13T13:56:26.318Z,12.79
2017-03-13T13:57:26.010Z,12.78
2017-03-13T13:58:20.664Z,12.86
2017-03-13T13:59:11.710Z,12.55
2017-03-13T14:00:20.950Z,12.94
2017-03-13T14:01:13.595Z,13.90
2017-03-13T14:02:21.565Z,14.96
2017-03-13T14:03:22.362Z,15.41
2017-03-13T14:04:21.936Z,15.38
2017-03-13T14:05:17.771Z,15.09